sensor_id;sensor_type;location;lat;lon;timestamp;P1;durP1;ratioP1;P2;durP2;ratioP2
23404;SDS011;11875;49.356;2.718;2023-05-07T00:01:24;10.60;;;5.30;;
23404;SDS011;11875;49.356;2.718;2023-05-07T00:03:49;11.50;;;6.15;;
23404;SDS011;11875;49.356;2.718;2023-05-07T00:06:15;10.25;;;5.32;;
23404;SDS011;11875;49.356;2.718;2023-05-07T00:08:40;9.48;;;5.68;;
23404;SDS011;11875;49.356;2.718;2023-05-07T00:11:06;10.98;;;5.85;;
23404;SDS011;11875;49.356;2.718;2023-05-07T00:13:32;6.80;;;5.63;;
23404;SDS011;11875;49.356;2.718;2023-05-07T00:16:00;9.32;;;5.75;;
23404;SDS011;11875;49.356;2.718;2023-05-07T00:18:27;9.90;;;5.78;;
23404;SDS011;11875;49.356;2.718;2023-05-07T00:20:52;12.35;;;6.07;;
23404;SDS011;11875;49.356;2.718;2023-05-07T00:23:18;9.65;;;6.30;;
23404;SDS011;11875;49.356;2.718;2023-05-07T00:25:44;9.45;;;6.45;;
23404;SDS011;11875;49.356;2.718;2023-05-07T00:28:09;15.68;;;6.63;;
23404;SDS011;11875;49.356;2.718;2023-05-07T00:30:35;9.32;;;6.63;;
23404;SDS011;11875;49.356;2.718;2023-05-07T00:33:01;10.82;;;6.75;;
23404;SDS011;11875;49.356;2.718;2023-05-07T00:35:27;10.98;;;6.70;;
23404;SDS011;11875;49.356;2.718;2023-05-07T00:37:53;9.38;;;6.53;;
23404;SDS011;11875;49.356;2.718;2023-05-07T00:40:19;13.60;;;6.57;;
23404;SDS011;11875;49.356;2.718;2023-05-07T00:42:44;10.07;;;6.05;;
23404;SDS011;11875;49.356;2.718;2023-05-07T00:45:12;10.30;;;6.50;;
23404;SDS011;11875;49.356;2.718;2023-05-07T00:47:38;9.40;;;6.18;;
23404;SDS011;11875;49.356;2.718;2023-05-07T00:50:05;12.27;;;6.35;;
23404;SDS011;11875;49.356;2.718;2023-05-07T00:52:31;8.43;;;6.22;;
23404;SDS011;11875;49.356;2.718;2023-05-07T00:54:56;7.75;;;5.00;;
23404;SDS011;11875;49.356;2.718;2023-05-07T00:57:22;5.35;;;4.03;;
23404;SDS011;11875;49.356;2.718;2023-05-07T00:59:50;13.50;;;4.35;;
23404;SDS011;11875;49.356;2.718;2023-05-07T01:02:17;4.35;;;3.50;;
23404;SDS011;11875;49.356;2.718;2023-05-07T01:04:42;7.55;;;3.28;;
23404;SDS011;11875;49.356;2.718;2023-05-07T01:07:08;5.63;;;2.85;;
23404;SDS011;11875;49.356;2.718;2023-05-07T01:09:34;5.35;;;2.88;;
23404;SDS011;11875;49.356;2.718;2023-05-07T01:12:01;5.80;;;2.70;;
23404;SDS011;11875;49.356;2.718;2023-05-07T01:14:26;7.22;;;2.47;;
23404;SDS011;11875;49.356;2.718;2023-05-07T01:16:52;5.00;;;2.60;;
23404;SDS011;11875;49.356;2.718;2023-05-07T01:19:18;5.43;;;2.80;;
23404;SDS011;11875;49.356;2.718;2023-05-07T01:21:45;5.32;;;2.67;;
23404;SDS011;11875;49.356;2.718;2023-05-07T01:24:13;5.45;;;3.10;;
23404;SDS011;11875;49.356;2.718;2023-05-07T01:26:39;5.28;;;3.25;;
23404;SDS011;11875;49.356;2.718;2023-05-07T01:29:05;8.45;;;4.15;;
23404;SDS011;11875;49.356;2.718;2023-05-07T01:31:32;7.40;;;3.80;;
23404;SDS011;11875;49.356;2.718;2023-05-07T01:33:59;5.40;;;3.45;;
23404;SDS011;11875;49.356;2.718;2023-05-07T01:36:26;6.13;;;3.13;;
23404;SDS011;11875;49.356;2.718;2023-05-07T01:38:54;6.10;;;3.53;;
23404;SDS011;11875;49.356;2.718;2023-05-07T01:41:22;7.72;;;3.60;;
23404;SDS011;11875;49.356;2.718;2023-05-07T01:43:48;6.10;;;3.83;;
23404;SDS011;11875;49.356;2.718;2023-05-07T01:46:16;6.05;;;3.28;;
23404;SDS011;11875;49.356;2.718;2023-05-07T01:48:42;13.63;;;4.10;;
23404;SDS011;11875;49.356;2.718;2023-05-07T01:51:11;7.20;;;3.08;;
23404;SDS011;11875;49.356;2.718;2023-05-07T01:53:37;4.70;;;2.40;;
23404;SDS011;11875;49.356;2.718;2023-05-07T01:56:03;5.13;;;2.53;;
23404;SDS011;11875;49.356;2.718;2023-05-07T01:58:30;4.85;;;3.10;;
23404;SDS011;11875;49.356;2.718;2023-05-07T02:00:56;6.25;;;2.78;;
23404;SDS011;11875;49.356;2.718;2023-05-07T02:03:22;7.70;;;2.78;;
23404;SDS011;11875;49.356;2.718;2023-05-07T02:05:47;3.22;;;2.30;;
23404;SDS011;11875;49.356;2.718;2023-05-07T02:08:13;6.13;;;2.65;;
23404;SDS011;11875;49.356;2.718;2023-05-07T02:10:39;3.70;;;2.20;;
23404;SDS011;11875;49.356;2.718;2023-05-07T02:13:04;2.72;;;1.95;;
23404;SDS011;11875;49.356;2.718;2023-05-07T02:15:30;2.70;;;1.80;;
23404;SDS011;11875;49.356;2.718;2023-05-07T02:18:03;3.05;;;1.67;;
23404;SDS011;11875;49.356;2.718;2023-05-07T02:20:31;4.20;;;1.73;;
23404;SDS011;11875;49.356;2.718;2023-05-07T02:22:56;2.78;;;1.65;;
23404;SDS011;11875;49.356;2.718;2023-05-07T02:25:22;2.20;;;1.40;;
23404;SDS011;11875;49.356;2.718;2023-05-07T02:27:48;4.35;;;1.70;;
23404;SDS011;11875;49.356;2.718;2023-05-07T02:30:13;2.72;;;1.40;;
23404;SDS011;11875;49.356;2.718;2023-05-07T02:32:39;1.90;;;1.55;;
23404;SDS011;11875;49.356;2.718;2023-05-07T02:35:05;2.45;;;1.23;;
23404;SDS011;11875;49.356;2.718;2023-05-07T02:37:31;2.20;;;1.40;;
23404;SDS011;11875;49.356;2.718;2023-05-07T02:39:56;1.55;;;1.33;;
23404;SDS011;11875;49.356;2.718;2023-05-07T02:42:22;1.65;;;1.35;;
23404;SDS011;11875;49.356;2.718;2023-05-07T02:44:48;3.20;;;1.10;;
23404;SDS011;11875;49.356;2.718;2023-05-07T02:47:14;1.30;;;1.15;;
23404;SDS011;11875;49.356;2.718;2023-05-07T02:49:40;2.05;;;1.20;;
23404;SDS011;11875;49.356;2.718;2023-05-07T02:52:06;3.30;;;1.48;;
23404;SDS011;11875;49.356;2.718;2023-05-07T02:54:32;2.30;;;1.33;;
23404;SDS011;11875;49.356;2.718;2023-05-07T02:56:57;3.35;;;1.40;;
23404;SDS011;11875;49.356;2.718;2023-05-07T02:59:23;2.67;;;1.35;;
23404;SDS011;11875;49.356;2.718;2023-05-07T03:01:50;1.30;;;1.05;;
23404;SDS011;11875;49.356;2.718;2023-05-07T03:04:15;1.50;;;1.13;;
23404;SDS011;11875;49.356;2.718;2023-05-07T03:06:41;5.47;;;1.40;;
23404;SDS011;11875;49.356;2.718;2023-05-07T03:09:07;2.33;;;1.48;;
23404;SDS011;11875;49.356;2.718;2023-05-07T03:11:32;2.42;;;1.30;;
23404;SDS011;11875;49.356;2.718;2023-05-07T03:13:58;2.17;;;1.20;;
23404;SDS011;11875;49.356;2.718;2023-05-07T03:16:23;0.93;;;0.90;;
23404;SDS011;11875;49.356;2.718;2023-05-07T03:18:49;4.10;;;1.80;;
23404;SDS011;11875;49.356;2.718;2023-05-07T03:21:15;1.88;;;0.90;;
23404;SDS011;11875;49.356;2.718;2023-05-07T03:23:40;2.90;;;1.33;;
23404;SDS011;11875;49.356;2.718;2023-05-07T03:26:06;1.10;;;1.00;;
23404;SDS011;11875;49.356;2.718;2023-05-07T03:28:31;1.42;;;1.10;;
23404;SDS011;11875;49.356;2.718;2023-05-07T03:30:57;2.78;;;1.15;;
23404;SDS011;11875;49.356;2.718;2023-05-07T03:33:22;3.00;;;1.00;;
23404;SDS011;11875;49.356;2.718;2023-05-07T03:35:48;6.72;;;1.00;;
23404;SDS011;11875;49.356;2.718;2023-05-07T03:38:14;1.35;;;0.98;;
23404;SDS011;11875;49.356;2.718;2023-05-07T03:40:40;3.60;;;1.10;;
23404;SDS011;11875;49.356;2.718;2023-05-07T03:43:05;2.05;;;1.17;;
23404;SDS011;11875;49.356;2.718;2023-05-07T03:45:31;1.15;;;1.00;;
23404;SDS011;11875;49.356;2.718;2023-05-07T03:47:56;2.50;;;1.17;;
23404;SDS011;11875;49.356;2.718;2023-05-07T03:50:22;1.38;;;1.27;;
23404;SDS011;11875;49.356;2.718;2023-05-07T03:52:48;8.15;;;1.20;;
23404;SDS011;11875;49.356;2.718;2023-05-07T03:55:13;1.30;;;1.00;;
23404;SDS011;11875;49.356;2.718;2023-05-07T03:57:39;1.10;;;1.00;;
23404;SDS011;11875;49.356;2.718;2023-05-07T04:00:04;1.95;;;1.13;;
23404;SDS011;11875;49.356;2.718;2023-05-07T04:02:32;1.45;;;1.15;;
23404;SDS011;11875;49.356;2.718;2023-05-07T04:04:58;1.20;;;1.10;;
23404;SDS011;11875;49.356;2.718;2023-05-07T04:07:23;1.40;;;1.17;;
23404;SDS011;11875;49.356;2.718;2023-05-07T04:09:49;1.90;;;1.27;;
23404;SDS011;11875;49.356;2.718;2023-05-07T04:12:15;2.15;;;1.10;;
23404;SDS011;11875;49.356;2.718;2023-05-07T04:14:40;3.25;;;1.38;;
23404;SDS011;11875;49.356;2.718;2023-05-07T04:17:06;2.95;;;1.50;;
23404;SDS011;11875;49.356;2.718;2023-05-07T04:19:33;4.40;;;1.48;;
23404;SDS011;11875;49.356;2.718;2023-05-07T04:21:58;3.72;;;1.45;;
23404;SDS011;11875;49.356;2.718;2023-05-07T04:24:24;3.58;;;1.90;;
23404;SDS011;11875;49.356;2.718;2023-05-07T04:26:49;4.55;;;1.50;;
23404;SDS011;11875;49.356;2.718;2023-05-07T04:29:16;5.25;;;1.65;;
23404;SDS011;11875;49.356;2.718;2023-05-07T04:31:42;3.92;;;1.58;;
23404;SDS011;11875;49.356;2.718;2023-05-07T04:34:09;2.65;;;1.17;;
23404;SDS011;11875;49.356;2.718;2023-05-07T04:36:36;2.15;;;1.30;;
23404;SDS011;11875;49.356;2.718;2023-05-07T04:39:04;1.52;;;1.13;;
23404;SDS011;11875;49.356;2.718;2023-05-07T04:41:31;2.85;;;1.30;;
23404;SDS011;11875;49.356;2.718;2023-05-07T04:43:57;1.80;;;1.23;;
23404;SDS011;11875;49.356;2.718;2023-05-07T04:46:23;3.15;;;1.13;;
23404;SDS011;11875;49.356;2.718;2023-05-07T04:48:49;2.45;;;1.33;;
23404;SDS011;11875;49.356;2.718;2023-05-07T04:51:16;2.35;;;1.50;;
23404;SDS011;11875;49.356;2.718;2023-05-07T04:53:41;1.60;;;1.30;;
23404;SDS011;11875;49.356;2.718;2023-05-07T04:56:08;4.18;;;1.30;;
23404;SDS011;11875;49.356;2.718;2023-05-07T04:58:33;2.03;;;1.20;;
23404;SDS011;11875;49.356;2.718;2023-05-07T05:00:59;1.70;;;1.30;;
23404;SDS011;11875;49.356;2.718;2023-05-07T05:03:25;6.13;;;1.35;;
23404;SDS011;11875;49.356;2.718;2023-05-07T05:05:51;3.33;;;1.10;;
23404;SDS011;11875;49.356;2.718;2023-05-07T05:08:17;2.72;;;1.38;;
23404;SDS011;11875;49.356;2.718;2023-05-07T05:10:43;5.63;;;1.50;;
23404;SDS011;11875;49.356;2.718;2023-05-07T05:13:09;2.50;;;1.27;;
23404;SDS011;11875;49.356;2.718;2023-05-07T05:15:37;3.53;;;1.40;;
23404;SDS011;11875;49.356;2.718;2023-05-07T05:18:03;2.75;;;1.48;;
23404;SDS011;11875;49.356;2.718;2023-05-07T05:20:29;3.17;;;1.67;;
23404;SDS011;11875;49.356;2.718;2023-05-07T05:22:55;17.55;;;1.60;;
23404;SDS011;11875;49.356;2.718;2023-05-07T05:25:20;2.80;;;1.40;;
23404;SDS011;11875;49.356;2.718;2023-05-07T05:27:46;3.38;;;1.73;;
23404;SDS011;11875;49.356;2.718;2023-05-07T05:30:11;3.88;;;1.40;;
23404;SDS011;11875;49.356;2.718;2023-05-07T05:32:37;2.97;;;1.48;;
23404;SDS011;11875;49.356;2.718;2023-05-07T05:35:03;4.85;;;1.90;;
23404;SDS011;11875;49.356;2.718;2023-05-07T05:37:29;3.20;;;1.70;;
23404;SDS011;11875;49.356;2.718;2023-05-07T05:39:56;2.95;;;1.55;;
23404;SDS011;11875;49.356;2.718;2023-05-07T05:42:22;7.70;;;1.75;;
23404;SDS011;11875;49.356;2.718;2023-05-07T05:44:48;4.15;;;1.70;;
23404;SDS011;11875;49.356;2.718;2023-05-07T05:47:13;3.17;;;1.80;;
23404;SDS011;11875;49.356;2.718;2023-05-07T05:49:39;3.38;;;2.10;;
23404;SDS011;11875;49.356;2.718;2023-05-07T05:52:05;4.65;;;1.85;;
23404;SDS011;11875;49.356;2.718;2023-05-07T05:54:30;4.35;;;1.60;;
23404;SDS011;11875;49.356;2.718;2023-05-07T05:56:56;5.05;;;2.13;;
23404;SDS011;11875;49.356;2.718;2023-05-07T05:59:22;2.85;;;1.63;;
23404;SDS011;11875;49.356;2.718;2023-05-07T06:01:47;6.47;;;1.95;;
23404;SDS011;11875;49.356;2.718;2023-05-07T06:04:13;2.67;;;1.65;;
23404;SDS011;11875;49.356;2.718;2023-05-07T06:06:39;5.20;;;1.60;;
23404;SDS011;11875;49.356;2.718;2023-05-07T06:09:04;7.15;;;1.98;;
23404;SDS011;11875;49.356;2.718;2023-05-07T06:11:31;3.80;;;1.80;;
23404;SDS011;11875;49.356;2.718;2023-05-07T06:13:56;2.58;;;1.35;;
23404;SDS011;11875;49.356;2.718;2023-05-07T06:16:22;3.47;;;1.80;;
23404;SDS011;11875;49.356;2.718;2023-05-07T06:18:49;6.90;;;1.60;;
23404;SDS011;11875;49.356;2.718;2023-05-07T06:21:15;2.80;;;1.52;;
23404;SDS011;11875;49.356;2.718;2023-05-07T06:23:40;11.07;;;1.50;;
23404;SDS011;11875;49.356;2.718;2023-05-07T06:26:06;1.88;;;1.33;;
23404;SDS011;11875;49.356;2.718;2023-05-07T06:28:32;2.50;;;1.30;;
23404;SDS011;11875;49.356;2.718;2023-05-07T06:31:16;1.73;;;1.10;;
23404;SDS011;11875;49.356;2.718;2023-05-07T06:33:45;2.65;;;1.25;;
23404;SDS011;11875;49.356;2.718;2023-05-07T06:36:11;2.58;;;1.65;;
23404;SDS011;11875;49.356;2.718;2023-05-07T06:38:37;2.88;;;1.48;;
23404;SDS011;11875;49.356;2.718;2023-05-07T06:41:02;5.25;;;1.30;;
23404;SDS011;11875;49.356;2.718;2023-05-07T06:43:28;2.90;;;1.40;;
23404;SDS011;11875;49.356;2.718;2023-05-07T06:45:54;2.38;;;1.73;;
23404;SDS011;11875;49.356;2.718;2023-05-07T06:48:19;2.00;;;1.42;;
23404;SDS011;11875;49.356;2.718;2023-05-07T06:50:45;3.30;;;1.60;;
23404;SDS011;11875;49.356;2.718;2023-05-07T06:53:11;2.88;;;1.40;;
23404;SDS011;11875;49.356;2.718;2023-05-07T06:55:36;1.83;;;1.50;;
23404;SDS011;11875;49.356;2.718;2023-05-07T06:58:03;2.25;;;1.50;;
23404;SDS011;11875;49.356;2.718;2023-05-07T07:00:29;4.55;;;2.47;;
23404;SDS011;11875;49.356;2.718;2023-05-07T07:02:55;2.50;;;1.70;;
23404;SDS011;11875;49.356;2.718;2023-05-07T07:05:21;3.08;;;1.77;;
23404;SDS011;11875;49.356;2.718;2023-05-07T07:07:47;3.05;;;1.60;;
23404;SDS011;11875;49.356;2.718;2023-05-07T07:10:20;2.25;;;1.58;;
23404;SDS011;11875;49.356;2.718;2023-05-07T07:12:49;2.17;;;1.45;;
23404;SDS011;11875;49.356;2.718;2023-05-07T07:15:15;3.42;;;1.80;;
23404;SDS011;11875;49.356;2.718;2023-05-07T07:17:41;2.97;;;1.60;;
23404;SDS011;11875;49.356;2.718;2023-05-07T07:20:07;2.15;;;1.40;;
23404;SDS011;11875;49.356;2.718;2023-05-07T07:22:32;1.88;;;1.50;;
23404;SDS011;11875;49.356;2.718;2023-05-07T07:24:58;3.92;;;1.70;;
23404;SDS011;11875;49.356;2.718;2023-05-07T07:27:24;2.00;;;1.80;;
23404;SDS011;11875;49.356;2.718;2023-05-07T07:29:50;3.13;;;1.98;;
23404;SDS011;11875;49.356;2.718;2023-05-07T07:32:15;2.00;;;1.40;;
23404;SDS011;11875;49.356;2.718;2023-05-07T07:34:41;2.28;;;1.75;;
23404;SDS011;11875;49.356;2.718;2023-05-07T07:37:07;2.45;;;1.50;;
23404;SDS011;11875;49.356;2.718;2023-05-07T07:39:32;3.33;;;1.30;;
23404;SDS011;11875;49.356;2.718;2023-05-07T07:41:58;2.10;;;1.58;;
23404;SDS011;11875;49.356;2.718;2023-05-07T07:44:24;1.75;;;1.50;;
23404;SDS011;11875;49.356;2.718;2023-05-07T07:46:50;1.70;;;1.60;;
23404;SDS011;11875;49.356;2.718;2023-05-07T07:49:16;3.42;;;1.77;;
23404;SDS011;11875;49.356;2.718;2023-05-07T07:51:42;1.80;;;1.60;;
23404;SDS011;11875;49.356;2.718;2023-05-07T07:54:08;4.10;;;1.60;;
23404;SDS011;11875;49.356;2.718;2023-05-07T07:56:33;3.03;;;1.88;;
23404;SDS011;11875;49.356;2.718;2023-05-07T07:58:59;3.60;;;1.73;;
23404;SDS011;11875;49.356;2.718;2023-05-07T08:01:25;2.63;;;1.60;;
23404;SDS011;11875;49.356;2.718;2023-05-07T08:03:51;5.63;;;2.03;;
23404;SDS011;11875;49.356;2.718;2023-05-07T08:06:17;3.53;;;2.03;;
23404;SDS011;11875;49.356;2.718;2023-05-07T08:08:43;1.85;;;1.52;;
23404;SDS011;11875;49.356;2.718;2023-05-07T08:11:08;4.18;;;2.50;;
23404;SDS011;11875;49.356;2.718;2023-05-07T08:13:34;2.58;;;1.92;;
23404;SDS011;11875;49.356;2.718;2023-05-07T08:16:00;2.83;;;2.10;;
23404;SDS011;11875;49.356;2.718;2023-05-07T08:18:26;4.47;;;2.10;;
23404;SDS011;11875;49.356;2.718;2023-05-07T08:20:53;6.55;;;1.95;;
23404;SDS011;11875;49.356;2.718;2023-05-07T08:23:19;4.85;;;1.85;;
23404;SDS011;11875;49.356;2.718;2023-05-07T08:25:45;3.15;;;2.70;;
23404;SDS011;11875;49.356;2.718;2023-05-07T08:28:11;2.25;;;1.92;;
23404;SDS011;11875;49.356;2.718;2023-05-07T08:30:36;4.22;;;2.88;;
23404;SDS011;11875;49.356;2.718;2023-05-07T08:33:02;4.78;;;3.42;;
23404;SDS011;11875;49.356;2.718;2023-05-07T08:35:28;3.35;;;2.72;;
23404;SDS011;11875;49.356;2.718;2023-05-07T08:37:53;2.47;;;2.28;;
23404;SDS011;11875;49.356;2.718;2023-05-07T08:40:20;2.40;;;2.20;;
23404;SDS011;11875;49.356;2.718;2023-05-07T08:42:49;2.70;;;2.38;;
23404;SDS011;11875;49.356;2.718;2023-05-07T08:45:17;2.70;;;2.33;;
23404;SDS011;11875;49.356;2.718;2023-05-07T08:47:47;4.03;;;2.80;;
23404;SDS011;11875;49.356;2.718;2023-05-07T08:50:15;3.58;;;2.30;;
23404;SDS011;11875;49.356;2.718;2023-05-07T08:52:41;2.50;;;2.30;;
23404;SDS011;11875;49.356;2.718;2023-05-07T08:55:07;3.03;;;2.45;;
23404;SDS011;11875;49.356;2.718;2023-05-07T08:57:34;4.03;;;2.15;;
23404;SDS011;11875;49.356;2.718;2023-05-07T09:00:00;2.67;;;2.40;;
23404;SDS011;11875;49.356;2.718;2023-05-07T09:02:26;2.22;;;1.80;;
23404;SDS011;11875;49.356;2.718;2023-05-07T09:04:52;4.38;;;1.60;;
23404;SDS011;11875;49.356;2.718;2023-05-07T09:07:18;4.72;;;1.60;;
23404;SDS011;11875;49.356;2.718;2023-05-07T09:09:45;2.28;;;1.80;;
23404;SDS011;11875;49.356;2.718;2023-05-07T09:12:11;1.63;;;1.40;;
23404;SDS011;11875;49.356;2.718;2023-05-07T09:14:37;2.08;;;1.63;;
23404;SDS011;11875;49.356;2.718;2023-05-07T09:17:04;2.83;;;1.35;;
23404;SDS011;11875;49.356;2.718;2023-05-07T09:19:29;2.65;;;1.67;;
23404;SDS011;11875;49.356;2.718;2023-05-07T09:22:02;2.60;;;1.77;;
23404;SDS011;11875;49.356;2.718;2023-05-07T09:24:29;3.03;;;1.70;;
23404;SDS011;11875;49.356;2.718;2023-05-07T09:26:59;4.05;;;1.40;;
23404;SDS011;11875;49.356;2.718;2023-05-07T09:29:28;3.47;;;1.73;;
23404;SDS011;11875;49.356;2.718;2023-05-07T09:31:55;1.98;;;1.77;;
23404;SDS011;11875;49.356;2.718;2023-05-07T09:34:21;3.05;;;1.80;;
23404;SDS011;11875;49.356;2.718;2023-05-07T09:36:47;1.67;;;1.50;;
23404;SDS011;11875;49.356;2.718;2023-05-07T09:39:12;4.90;;;1.63;;
23404;SDS011;11875;49.356;2.718;2023-05-07T09:41:45;2.00;;;1.40;;
23404;SDS011;11875;49.356;2.718;2023-05-07T09:44:12;1.80;;;1.60;;
23404;SDS011;11875;49.356;2.718;2023-05-07T09:46:39;2.15;;;1.80;;
23404;SDS011;11875;49.356;2.718;2023-05-07T09:49:09;2.55;;;1.65;;
23404;SDS011;11875;49.356;2.718;2023-05-07T09:51:45;3.85;;;1.88;;
23404;SDS011;11875;49.356;2.718;2023-05-07T09:54:14;2.13;;;1.50;;
23404;SDS011;11875;49.356;2.718;2023-05-07T09:56:40;4.00;;;1.50;;
23404;SDS011;11875;49.356;2.718;2023-05-07T09:59:07;2.35;;;1.70;;
23404;SDS011;11875;49.356;2.718;2023-05-07T10:01:36;4.70;;;2.38;;
23404;SDS011;11875;49.356;2.718;2023-05-07T10:04:02;2.67;;;1.70;;
23404;SDS011;11875;49.356;2.718;2023-05-07T10:06:29;3.33;;;2.28;;
23404;SDS011;11875;49.356;2.718;2023-05-07T10:08:55;4.03;;;2.58;;
23404;SDS011;11875;49.356;2.718;2023-05-07T10:11:22;2.40;;;1.88;;
23404;SDS011;11875;49.356;2.718;2023-05-07T10:13:48;3.75;;;1.70;;
23404;SDS011;11875;49.356;2.718;2023-05-07T10:16:14;3.38;;;1.60;;
23404;SDS011;11875;49.356;2.718;2023-05-07T10:18:40;1.65;;;1.40;;
23404;SDS011;11875;49.356;2.718;2023-05-07T10:21:16;2.55;;;1.75;;
23404;SDS011;11875;49.356;2.718;2023-05-07T10:23:50;3.47;;;1.58;;
23404;SDS011;11875;49.356;2.718;2023-05-07T10:26:18;3.13;;;1.83;;
23404;SDS011;11875;49.356;2.718;2023-05-07T10:28:48;3.15;;;1.60;;
23404;SDS011;11875;49.356;2.718;2023-05-07T10:33:54;2.28;;;1.50;;
23404;SDS011;11875;49.356;2.718;2023-05-07T10:36:21;1.67;;;1.58;;
23404;SDS011;11875;49.356;2.718;2023-05-07T10:38:48;1.65;;;1.35;;
23404;SDS011;11875;49.356;2.718;2023-05-07T10:41:14;1.88;;;1.38;;
23404;SDS011;11875;49.356;2.718;2023-05-07T10:43:42;1.55;;;1.30;;
23404;SDS011;11875;49.356;2.718;2023-05-07T10:46:16;1.27;;;1.10;;
23404;SDS011;11875;49.356;2.718;2023-05-07T10:51:31;2.10;;;1.55;;
23404;SDS011;11875;49.356;2.718;2023-05-07T10:56:34;3.10;;;1.70;;
23404;SDS011;11875;49.356;2.718;2023-05-07T11:01:53;2.45;;;2.00;;
23404;SDS011;11875;49.356;2.718;2023-05-07T11:04:20;3.10;;;2.72;;
23404;SDS011;11875;49.356;2.718;2023-05-07T11:15:11;2.60;;;2.30;;
23404;SDS011;11875;49.356;2.718;2023-05-07T11:17:54;5.32;;;2.92;;
23404;SDS011;11875;49.356;2.718;2023-05-07T11:20:20;3.05;;;2.20;;
23404;SDS011;11875;49.356;2.718;2023-05-07T11:22:46;2.60;;;2.10;;
23404;SDS011;11875;49.356;2.718;2023-05-07T11:25:18;2.67;;;2.47;;
23404;SDS011;11875;49.356;2.718;2023-05-07T11:27:44;4.88;;;2.40;;
23404;SDS011;11875;49.356;2.718;2023-05-07T11:30:10;3.60;;;2.60;;
23404;SDS011;11875;49.356;2.718;2023-05-07T11:32:43;18.95;;;8.07;;
23404;SDS011;11875;49.356;2.718;2023-05-07T11:35:12;4.90;;;2.58;;
23404;SDS011;11875;49.356;2.718;2023-05-07T11:37:40;2.63;;;2.40;;
23404;SDS011;11875;49.356;2.718;2023-05-07T11:40:07;3.60;;;2.70;;
23404;SDS011;11875;49.356;2.718;2023-05-07T11:42:36;2.60;;;2.40;;
23404;SDS011;11875;49.356;2.718;2023-05-07T11:45:03;2.58;;;2.38;;
23404;SDS011;11875;49.356;2.718;2023-05-07T11:47:30;2.80;;;2.00;;
23404;SDS011;11875;49.356;2.718;2023-05-07T11:49:56;2.10;;;1.90;;
23404;SDS011;11875;49.356;2.718;2023-05-07T11:52:26;2.70;;;2.10;;
23404;SDS011;11875;49.356;2.718;2023-05-07T11:54:53;3.60;;;2.35;;
23404;SDS011;11875;49.356;2.718;2023-05-07T11:57:23;1.70;;;1.60;;
23404;SDS011;11875;49.356;2.718;2023-05-07T11:59:56;1.80;;;1.60;;
23404;SDS011;11875;49.356;2.718;2023-05-07T12:02:23;1.83;;;1.45;;
23404;SDS011;11875;49.356;2.718;2023-05-07T12:04:50;2.33;;;1.98;;
23404;SDS011;11875;49.356;2.718;2023-05-07T12:07:16;1.48;;;1.38;;
23404;SDS011;11875;49.356;2.718;2023-05-07T12:09:43;1.50;;;1.38;;
23404;SDS011;11875;49.356;2.718;2023-05-07T12:12:09;1.10;;;1.00;;
23404;SDS011;11875;49.356;2.718;2023-05-07T12:14:39;2.13;;;1.30;;
23404;SDS011;11875;49.356;2.718;2023-05-07T12:17:06;1.48;;;1.20;;
23404;SDS011;11875;49.356;2.718;2023-05-07T12:19:33;2.53;;;1.13;;
23404;SDS011;11875;49.356;2.718;2023-05-07T12:22:00;2.53;;;1.20;;
23404;SDS011;11875;49.356;2.718;2023-05-07T12:24:27;1.90;;;1.30;;
23404;SDS011;11875;49.356;2.718;2023-05-07T12:26:53;2.33;;;1.63;;
23404;SDS011;11875;49.356;2.718;2023-05-07T12:29:22;2.42;;;1.50;;
23404;SDS011;11875;49.356;2.718;2023-05-07T12:31:49;4.78;;;1.40;;
23404;SDS011;11875;49.356;2.718;2023-05-07T12:34:15;1.35;;;1.20;;
23404;SDS011;11875;49.356;2.718;2023-05-07T12:36:40;1.38;;;1.13;;
23404;SDS011;11875;49.356;2.718;2023-05-07T12:39:06;1.30;;;1.20;;
23404;SDS011;11875;49.356;2.718;2023-05-07T12:41:53;1.38;;;0.98;;
23404;SDS011;11875;49.356;2.718;2023-05-07T12:44:23;1.10;;;1.00;;
23404;SDS011;11875;49.356;2.718;2023-05-07T12:46:50;3.30;;;1.63;;
23404;SDS011;11875;49.356;2.718;2023-05-07T12:49:16;2.88;;;1.65;;
23404;SDS011;11875;49.356;2.718;2023-05-07T12:51:48;2.63;;;1.77;;
23404;SDS011;11875;49.356;2.718;2023-05-07T12:54:30;2.38;;;1.60;;
23404;SDS011;11875;49.356;2.718;2023-05-07T12:57:07;3.22;;;1.65;;
23404;SDS011;11875;49.356;2.718;2023-05-07T12:59:35;2.08;;;1.70;;
23404;SDS011;11875;49.356;2.718;2023-05-07T13:02:02;1.73;;;1.20;;
23404;SDS011;11875;49.356;2.718;2023-05-07T13:04:28;1.50;;;1.30;;
23404;SDS011;11875;49.356;2.718;2023-05-07T13:06:54;1.45;;;1.08;;
23404;SDS011;11875;49.356;2.718;2023-05-07T13:09:19;1.48;;;1.33;;
23404;SDS011;11875;49.356;2.718;2023-05-07T13:11:45;3.40;;;1.27;;
23404;SDS011;11875;49.356;2.718;2023-05-07T13:14:10;1.42;;;1.20;;
23404;SDS011;11875;49.356;2.718;2023-05-07T13:16:36;1.63;;;1.30;;
23404;SDS011;11875;49.356;2.718;2023-05-07T13:19:02;1.35;;;1.20;;
23404;SDS011;11875;49.356;2.718;2023-05-07T13:21:27;6.93;;;1.25;;
23404;SDS011;11875;49.356;2.718;2023-05-07T13:23:53;1.00;;;0.90;;
23404;SDS011;11875;49.356;2.718;2023-05-07T13:26:19;1.40;;;1.20;;
23404;SDS011;11875;49.356;2.718;2023-05-07T13:28:45;0.95;;;0.80;;
23404;SDS011;11875;49.356;2.718;2023-05-07T13:31:11;0.60;;;0.60;;
23404;SDS011;11875;49.356;2.718;2023-05-07T13:33:36;0.47;;;0.47;;
23404;SDS011;11875;49.356;2.718;2023-05-07T13:36:02;0.80;;;0.70;;
23404;SDS011;11875;49.356;2.718;2023-05-07T13:38:30;4.22;;;0.90;;
23404;SDS011;11875;49.356;2.718;2023-05-07T13:40:56;3.60;;;1.20;;
23404;SDS011;11875;49.356;2.718;2023-05-07T13:43:21;1.15;;;0.80;;
23404;SDS011;11875;49.356;2.718;2023-05-07T13:45:47;1.25;;;0.90;;
23404;SDS011;11875;49.356;2.718;2023-05-07T13:48:12;0.63;;;0.60;;
23404;SDS011;11875;49.356;2.718;2023-05-07T13:50:38;1.23;;;0.90;;
23404;SDS011;11875;49.356;2.718;2023-05-07T13:53:04;1.95;;;0.98;;
23404;SDS011;11875;49.356;2.718;2023-05-07T13:55:30;0.82;;;0.80;;
23404;SDS011;11875;49.356;2.718;2023-05-07T13:57:56;0.70;;;0.70;;
23404;SDS011;11875;49.356;2.718;2023-05-07T14:00:23;0.80;;;0.77;;
23404;SDS011;11875;49.356;2.718;2023-05-07T14:02:50;1.33;;;0.90;;
23404;SDS011;11875;49.356;2.718;2023-05-07T14:05:15;1.50;;;0.82;;
23404;SDS011;11875;49.356;2.718;2023-05-07T14:07:41;1.00;;;0.75;;
23404;SDS011;11875;49.356;2.718;2023-05-07T14:10:07;2.63;;;0.90;;
23404;SDS011;11875;49.356;2.718;2023-05-07T14:12:33;1.38;;;0.95;;
23404;SDS011;11875;49.356;2.718;2023-05-07T14:14:59;1.52;;;1.30;;
23404;SDS011;11875;49.356;2.718;2023-05-07T14:17:24;3.72;;;1.25;;
23404;SDS011;11875;49.356;2.718;2023-05-07T14:19:51;15.15;;;13.95;;
23404;SDS011;11875;49.356;2.718;2023-05-07T14:22:19;2.85;;;1.60;;
23404;SDS011;11875;49.356;2.718;2023-05-07T14:24:46;1.80;;;1.40;;
23404;SDS011;11875;49.356;2.718;2023-05-07T14:27:12;2.72;;;1.85;;
23404;SDS011;11875;49.356;2.718;2023-05-07T14:29:37;7.43;;;6.15;;
23404;SDS011;11875;49.356;2.718;2023-05-07T14:32:03;3.15;;;2.40;;
23404;SDS011;11875;49.356;2.718;2023-05-07T14:34:29;2.13;;;1.40;;
23404;SDS011;11875;49.356;2.718;2023-05-07T14:36:55;4.30;;;1.38;;
23404;SDS011;11875;49.356;2.718;2023-05-07T14:39:20;1.80;;;1.48;;
23404;SDS011;11875;49.356;2.718;2023-05-07T14:41:46;2.92;;;1.42;;
23404;SDS011;11875;49.356;2.718;2023-05-07T14:44:12;2.40;;;1.52;;
23404;SDS011;11875;49.356;2.718;2023-05-07T14:46:37;2.67;;;1.73;;
23404;SDS011;11875;49.356;2.718;2023-05-07T14:49:03;2.13;;;1.48;;
23404;SDS011;11875;49.356;2.718;2023-05-07T14:51:29;2.60;;;1.38;;
23404;SDS011;11875;49.356;2.718;2023-05-07T14:53:55;2.72;;;1.33;;
23404;SDS011;11875;49.356;2.718;2023-05-07T14:56:21;1.52;;;1.40;;
23404;SDS011;11875;49.356;2.718;2023-05-07T14:58:47;2.22;;;0.95;;
23404;SDS011;11875;49.356;2.718;2023-05-07T15:01:14;2.17;;;1.40;;
23404;SDS011;11875;49.356;2.718;2023-05-07T15:03:40;2.97;;;1.00;;